Ship Status Report: callsign AMOUK29

sailwx.info

Track history (hours):
 
Tides and Currents Weather Stations Pressure Air Temp Water Temp Dewpoint Dewpoint Depression Visibility Wind Speed Wind Dir Waves Ship Positions

Callsign AMOUK29 (name unknown)

Last reported at 2015-Apr-01 11:00 UTC. Time now 2015-Apr-01 13:17 UTC.
Position N 54°12' W 005°24'.

Barometer 1021.6 mb
Air temperature 6.5 ° C
Dewpoint 2.7 ° C

Date/timePositionNaut miles runAvg speedWind from/ knotsBaromVisibWave heightAir tempDewpointWater temp
2015-Apr-01 11:00N 54°12' W 005°24'7 7.0 1021.6 6.5 2.7
2015-Apr-01 10:00N 54°06' W 005°30'0 0.0 1022.6 5.9 2.8
2015-Apr-01 09:00N 54°06' W 005°30'6 6.0 1022.2 5.7 2.6
2015-Apr-01 08:00N 54°00' W 005°30'0 0.0 1022.0 5.2 2.3
2015-Apr-01 07:00N 54°00' W 005°30'0 0.0 1021.8 5.2 2.1
2015-Apr-01 05:00N 54°00' W 005°30'15 2.2 1022.2 5.4 1.9
2015-Mar-31 22:00N 54°06' W 005°54'7 1.4 1017.1 5.5-1.9
2015-Mar-31 17:00N 54°12' W 005°48'0 0.0 1012.6 6.5-0.8
2015-Mar-31 11:00N 54°12' W 005°48'11 2.6 1006.7 6.8-1.3
2015-Mar-31 07:00N 54°12' W 005°30'18 9.2 1002.2 6.1 2.0
2015-Mar-31 05:00N 54°30' W 005°24'7 6.9 999.2 6.2 2.3
2015-Mar-31 04:00N 54°36' W 005°30'3 3.5 996.4 6.7 2.5
2015-Mar-31 03:00N 54°36' W 005°24'3 1.7 993.7 7.2 2.9
2015-Mar-31 01:00N 54°36' W 005°30'7 6.9 987.8 7.9 4.5
2015-Mar-31 00:00N 54°30' W 005°24'0 0.0 986.8 8.5 4.2
2015-Mar-30 23:00N 54°30' W 005°24'3 3.5 986.3 8.8 4.3
2015-Mar-30 22:00N 54°30' W 005°18'1212.5 986.0 9.4 4.9
2015-Mar-30 21:00N 54°18' W 005°12'7 6.9 987.2 10.5 6.2
2015-Mar-30 20:00N 54°12' W 005°18'6 6.0 989.0 10.0 7.5
2015-Mar-30 19:00N 54°06' W 005°18'1110.6 991.0 9.5 8.5
2015-Mar-30 18:00N 54°06' W 005°36'7 7.0 993.4 8.8 8.1
2015-Mar-30 17:00N 54°06' W 005°48'12 6.0 995.2 8.1 7.1
2015-Mar-30 15:00N 53°54' W 005°48'7 7.0 1000.8 7.7 6.4
2015-Mar-30 14:00N 53°48' W 005°54'6 6.0 1002.6 8.9 5.5
2015-Mar-30 13:00N 53°42' W 005°54'1212.0 1005.2 7.7 4.5
2015-Mar-30 12:00N 53°30' W 005°54'4 3.6 1006.6 8.5 3.9
2015-Mar-30 11:00N 53°30' W 006°00'6 6.0 1007.8 7.8 2.5
2015-Mar-30 10:00N 53°24' W 006°00'7 7.0 1009.0 7.7 1.3
2015-Mar-30 09:00N 53°18' W 005°54'7 7.0 1008.7 6.4 0.1
2015-Mar-30 08:00N 53°24' W 005°48'6 6.0 1008.5 6.1-0.0
2015-Mar-30 07:00N 53°30' W 005°48'1312.5 1008.0 5.7 0.6
2015-Mar-30 06:00N 53°18' W 005°42'7 7.0 1007.8 5.8 1.0
2015-Mar-30 05:00N 53°24' W 005°36'7 7.2 1007.4 7.4 1.1
2015-Mar-30 04:00N 53°24' W 005°48'7 7.2 1006.6 5.9 1.1
2015-Mar-30 03:00N 53°24' W 006°00'6 6.0 1006.0 6.4 1.7
2015-Mar-30 02:00N 53°30' W 006°00'0 0.0 1004.5 5.1 1.7
2015-Mar-30 01:00N 53°30' W 006°00'6 6.0 1003.5 5.2 2.2
2015-Mar-30 00:00N 53°36' W 006°00'4 3.6 1002.3 5.4 1.5
2015-Mar-29 23:00N 53°36' W 005°54'6 6.0 1001.4 5.8 1.8
2015-Mar-29 22:00N 53°42' W 005°54'1312.5 1000.3 6.3 2.6
2015-Mar-29 21:00N 53°54' W 005°48'7 7.0 998.8 6.5 2.6
2015-Mar-29 20:00N 54°00' W 005°42'6 6.0 998.1 5.7 2.5
2015-Mar-29 19:00N 54°06' W 005°42'7 7.0 996.1 7.3 1.2
2015-Mar-29 18:00N 54°06' W 005°30'7 7.0 996.3 8.3 1.7
2015-Mar-29 17:00N 54°00' W 005°36'13 6.3 994.7 8.4 0.4
2015-Mar-29 15:00N 53°48' W 005°42'4 3.5 993.8 7.9 4.2
2015-Mar-29 14:00N 53°48' W 005°36'0 0.0 994.4 6.8 4.3
2015-Mar-29 13:00N 53°48' W 005°36'0 0.0 994.1 8.8 4.7
2015-Mar-29 12:00N 53°48' W 005°36'0 0.0 993.1 7.5 4.0
2015-Mar-29 11:00N 53°48' W 005°36'0 0.0 992.8 6.7 4.9
2015-Mar-29 10:00N 53°48' W 005°36'0 0.0 991.2 6.6 4.5
2015-Mar-29 09:00N 53°48' W 005°36'0 0.0 991.0 6.1 4.8
2015-Mar-29 08:00N 53°48' W 005°36'0 0.0 992.1 5.0 3.5
2015-Mar-29 07:00N 53°48' W 005°36'4 3.5 993.6 5.6 3.7
2015-Mar-29 06:00N 53°48' W 005°42'7 7.1 995.0 6.3 3.1
2015-Mar-29 05:00N 53°48' W 005°54'1110.6 996.4 8.6 3.8
2015-Mar-29 04:00N 53°48' W 006°12'0 0.0 997.3 8.3 3.2
2015-Mar-29 03:00N 53°48' W 006°12'7 7.0 997.3 8.0 3.0
2015-Mar-29 02:00N 53°54' W 006°06'0 0.0 997.9 8.1 3.2
2015-Mar-29 01:00N 53°54' W 006°06'4 1.8 998.8 8.1 3.0
2015-Mar-28 23:00N 53°54' W 006°12'7 7.1 998.1 8.4 2.7
2015-Mar-28 22:00N 53°54' W 006°00'7 7.0 997.2 9.0 3.8
2015-Mar-28 21:00N 54°00' W 006°06'1312.5 998.0 8.9 6.3
2015-Mar-28 20:00N 53°48' W 006°00'6 6.0 998.1 8.8 6.6
2015-Mar-28 19:00N 53°42' W 006°00'7 7.1 9.3 6.2
2015-Mar-28 18:00N 53°42' W 005°48'4 3.6 1000.7 9.0 5.8
2015-Mar-28 17:00N 53°42' W 005°42'7 7.0 1001.9 9.8 6.1
2015-Mar-28 16:00N 53°36' W 005°48'4 3.6 1001.6 11.6 5.6
2015-Mar-28 15:00N 53°36' W 005°54'7 7.1 1000.8 11.2 5.4
2015-Mar-28 14:00N 53°36' W 006°06'6 6.0 1001.4 11.2 5.9
2015-Mar-28 13:00N 53°42' W 006°06'6 6.0 1000.9 11.4 5.3
2015-Mar-28 12:00N 53°48' W 006°06'6 6.0 998.9 11.1 5.9
2015-Mar-28 11:00N 53°54' W 006°06'7 7.0 999.2 12.0 8.0
2015-Mar-28 10:00N 53°48' W 006°12'7 7.0 998.3 12.2 8.9
2015-Mar-28 09:00N 53°42' W 006°06'6 6.0 999.9 11.2 9.8
2015-Mar-28 08:00N 53°36' W 006°06'0 0.0 999.7 11.2 9.5
2015-Mar-28 07:00N 53°36' W 006°06'0 0.0 1001.2 11.9 9.1
2015-Mar-28 06:00N 53°36' W 006°06'0 0.0 1001.3 11.7 8.9
2015-Mar-28 05:00N 53°36' W 006°06'0 0.0 1002.1 11.3 9.1
2015-Mar-28 04:00N 53°36' W 006°06'0 0.0 1004.5 11.7 9.1
2015-Mar-28 03:00N 53°36' W 006°06'0 0.0 1006.2 8.2 7.8
2015-Mar-28 02:00N 53°36' W 006°06'6 6.0 1008.0 7.4 7.1
2015-Mar-28 01:00N 53°42' W 006°06'7 7.1 1009.8 7.3 7.0
2015-Mar-28 00:00N 53°42' W 005°54'9 9.3 1012.2 7.3 6.8
2015-Mar-27 23:00N 53°48' W 005°42'4 3.5 1013.8 7.3 6.6
2015-Mar-27 22:00N 53°48' W 005°36'9 9.3 1015.4 7.7 6.5
2015-Mar-27 21:00N 53°42' W 005°24'9 9.3 1016.5 7.5 6.1
2015-Mar-27 20:00N 53°36' W 005°12'1110.7 1017.0 7.6 6.2
2015-Mar-27 19:00N 53°36' W 004°54'1110.7 1017.6 7.5 6.1
2015-Mar-27 18:00N 53°36' W 004°36'1110.7 1017.5 7.3 4.7
2015-Mar-27 17:00N 53°36' W 004°18'1110.7 1017.7 7.7 4.3
2015-Mar-27 16:00N 53°36' W 004°00'1110.7 1018.2 7.6 3.4
2015-Mar-27 15:00N 53°36' W 003°42'7 7.1 1018.6 7.7 3.6
2015-Mar-27 14:00N 53°36' W 003°30'7 7.0 1018.9 7.4 2.3
2015-Mar-27 13:00N 53°30' W 003°24'0 0.0 1019.7 7.5 4.1
2015-Mar-27 12:00N 53°30' W 003°24'0 0.0 1019.8 6.8 3.4
2015-Mar-27 11:00N 53°30' W 003°24'0 0.0 1020.1 8.8 4.2
2015-Mar-27 10:00N 53°30' W 003°24'1212.3 1019.7 6.4 4.0
2015-Mar-27 09:00N 53°36' W 003°42'9 9.3 1019.0 6.5 4.4
2015-Mar-27 08:00N 53°42' W 003°54'9 9.3 1018.7 6.6 3.6
2015-Mar-27 07:00N 53°48' W 004°06'1212.2 1018.0 6.8 2.8
2015-Mar-27 06:00N 53°54' W 004°24'7 7.1 1017.8 6.5 2.5
2015-Mar-27 05:00N 53°54' W 004°36'1212.2 1017.6 6.5 2.6
2015-Mar-27 04:00N 54°00' W 004°54'1312.5 1017.3 6.3 2.6
2015-Mar-27 03:00N 54°12' W 005°00'1413.9 1016.8 5.6 2.2
2015-Mar-27 02:00N 54°24' W 005°12'7 6.9 1016.2 5.6 2.1
2015-Mar-27 01:00N 54°30' W 005°18'1413.9 1016.2 4.9 2.0
2015-Mar-27 00:00N 54°42' W 005°30'1010.4 1015.5 5.8 1.5
2015-Mar-26 23:00N 54°42' W 005°48'7 2.3 1015.5 5.4 0.8
2015-Mar-26 20:00N 54°36' W 005°54'0 0.0 1013.1 6.6-1.0
2015-Mar-26 16:00N 54°36' W 005°54'0 0.0 1008.1 9.3-1.2
2015-Mar-26 13:00N 54°36' W 005°54'0 0.0 1004.7 9.7-0.2
2015-Mar-26 05:00N 54°36' W 005°54'0 0.0 995.0 6.1 4.8
2015-Mar-26 04:00N 54°36' W 005°54'0 0.0 994.2 5.7 4.8
2015-Mar-26 02:00N 54°36' W 005°54'0 0.0 994.8 4.9 3.5
2015-Mar-25 19:00N 54°36' W 005°54'0 0.0 1004.9 6.2 1.8
2015-Mar-25 18:00N 54°36' W 005°54'0 0.0 1006.1 6.2 1.4
2015-Mar-25 17:00N 54°36' W 005°54'0 0.0 1006.8 6.6-0.0
2015-Mar-25 16:00N 54°36' W 005°54'0 0.0 1008.0 6.7-0.8
2015-Mar-25 14:00N 54°36' W 005°54'0 0.0 1009.5 9.3-0.2
2015-Mar-25 13:00N 54°36' W 005°54'0 0.0 1010.7 8.0-1.8
2015-Mar-25 12:00N 54°36' W 005°54'0 0.0 1012.0 7.6-0.4
2015-Mar-25 11:00N 54°36' W 005°54'0 0.0 1013.1 7.2 1.0
2015-Mar-25 10:00N 54°36' W 005°54'0 0.0 1013.5 6.6 2.0
2015-Mar-25 09:00N 54°36' W 005°54'0 0.0 1013.9 4.4 1.3
2015-Mar-25 06:00N 54°36' W 005°54'0 0.0 1014.0 2.1 0.2
2015-Mar-25 05:00N 54°36' W 005°54'0 0.0 1013.8 3.0 0.3
2015-Mar-25 04:00N 54°36' W 005°54'0 0.0 1013.9 3.6 0.4
2015-Mar-25 03:00N 54°36' W 005°54'0 0.0 1013.9 3.5 0.7
2015-Mar-25 00:00N 54°36' W 005°54'0 0.0 1014.1 4.1 0.2
2015-Mar-24 18:00N 54°36' W 005°54'0 0.0 1011.9 6.4 1.2
2015-Mar-24 14:00N 54°36' W 005°54'0 0.0 1011.0 5.9 1.2
2015-Mar-24 13:00N 54°36' W 005°54'0 0.0 1010.5 7.0 1.4
2015-Mar-24 11:00N 54°36' W 005°54'0 0.0 1010.8 6.9 2.4
2015-Mar-24 08:00N 54°36' W 005°54'0 0.0 1011.0 3.6 1.2
2015-Mar-24 03:00N 54°36' W 005°54'0 0.0 1011.6 3.0 0.8
2015-Mar-24 02:00N 54°36' W 005°54'0 0.0 1012.0 3.3 0.8
2015-Mar-24 00:00N 54°36' W 005°54'0 0.0 1012.9 3.4 0.8
2015-Mar-23 20:00N 54°36' W 005°54'0 0.0 1014.2 5.8 1.2
2015-Mar-23 18:00N 54°36' W 005°54'0 0.0 1014.2 7.9 0.2
2015-Mar-23 16:00N 54°36' W 005°54'0 0.0 1014.1 9.6-0.1
2015-Mar-23 15:00N 54°36' W 005°54'0 0.0 1014.3 9.5 0.3
2015-Mar-23 13:00N 54°36' W 005°54'0 0.0 1014.9 9.6 1.6
2015-Mar-23 11:00N 54°36' W 005°54'0 0.0 1015.3 9.2 1.5
2015-Mar-23 05:00N 54°36' W 005°54'0 0.0 1012.8 7.5 4.5
2015-Mar-23 04:00N 54°36' W 005°54'0 0.0 1012.8 8.0 4.4
2015-Mar-23 03:00N 54°36' W 005°54'0 0.0 1012.9 8.1 5.0
2015-Mar-23 02:00N 54°36' W 005°54'0 0.0 1013.1 8.2 4.7
2015-Mar-22 19:00N 54°36' W 005°54'12 3.0 1017.8 11.0 3.1
2015-Mar-22 15:00N 54°42' W 005°36'2412.0 1020.7 8.7 5.5
2015-Mar-22 13:00N 54°30' W 005°00'1010.5 1023.6 6.9 4.6
2015-Mar-22 12:00N 54°30' W 004°42'   1024.8 6.9 4.4
Track history (hours):
 
Tides and Currents Weather Stations Pressure Air Temp Water Temp Dewpoint Dewpoint Depression Visibility Wind Speed Wind Dir Waves Ship Positions

Callsign AMOUK29 (name unknown)

Last reported at 2015-Apr-01 11:00 UTC. Time now 2015-Apr-01 13:17 UTC.
Position N 54°12' W 005°24'.

Barometer 1021.6 mb
Air temperature 6.5 ° C
Dewpoint 2.7 ° C

Date/timePositionNaut miles runAvg speedWind from/ knotsBaromVisibWave heightAir tempDewpointWater temp
2015-Apr-01 11:00N 54°12' W 005°24'7 7.0 1021.6 6.5 2.7
2015-Apr-01 10:00N 54°06' W 005°30'0 0.0 1022.6 5.9 2.8
2015-Apr-01 09:00N 54°06' W 005°30'6 6.0 1022.2 5.7 2.6
2015-Apr-01 08:00N 54°00' W 005°30'0 0.0 1022.0 5.2 2.3
2015-Apr-01 07:00N 54°00' W 005°30'0 0.0 1021.8 5.2 2.1
2015-Apr-01 05:00N 54°00' W 005°30'15 2.2 1022.2 5.4 1.9
2015-Mar-31 22:00N 54°06' W 005°54'7 1.4 1017.1 5.5-1.9
2015-Mar-31 17:00N 54°12' W 005°48'0 0.0 1012.6 6.5-0.8
2015-Mar-31 11:00N 54°12' W 005°48'11 2.6 1006.7 6.8-1.3
2015-Mar-31 07:00N 54°12' W 005°30'18 9.2 1002.2 6.1 2.0
2015-Mar-31 05:00N 54°30' W 005°24'7 6.9 999.2 6.2 2.3
2015-Mar-31 04:00N 54°36' W 005°30'3 3.5 996.4 6.7 2.5
2015-Mar-31 03:00N 54°36' W 005°24'3 1.7 993.7 7.2 2.9
2015-Mar-31 01:00N 54°36' W 005°30'7 6.9 987.8 7.9 4.5
2015-Mar-31 00:00N 54°30' W 005°24'0 0.0 986.8 8.5 4.2
2015-Mar-30 23:00N 54°30' W 005°24'3 3.5 986.3 8.8 4.3
2015-Mar-30 22:00N 54°30' W 005°18'1212.5 986.0 9.4 4.9
2015-Mar-30 21:00N 54°18' W 005°12'7 6.9 987.2 10.5 6.2
2015-Mar-30 20:00N 54°12' W 005°18'6 6.0 989.0 10.0 7.5
2015-Mar-30 19:00N 54°06' W 005°18'1110.6 991.0 9.5 8.5
2015-Mar-30 18:00N 54°06' W 005°36'7 7.0 993.4 8.8 8.1
2015-Mar-30 17:00N 54°06' W 005°48'12 6.0 995.2 8.1 7.1
2015-Mar-30 15:00N 53°54' W 005°48'7 7.0 1000.8 7.7 6.4
2015-Mar-30 14:00N 53°48' W 005°54'6 6.0 1002.6 8.9 5.5
2015-Mar-30 13:00N 53°42' W 005°54'1212.0 1005.2 7.7 4.5
2015-Mar-30 12:00N 53°30' W 005°54'4 3.6 1006.6 8.5 3.9
2015-Mar-30 11:00N 53°30' W 006°00'6 6.0 1007.8 7.8 2.5
2015-Mar-30 10:00N 53°24' W 006°00'7 7.0 1009.0 7.7 1.3
2015-Mar-30 09:00N 53°18' W 005°54'7 7.0 1008.7 6.4 0.1
2015-Mar-30 08:00N 53°24' W 005°48'6 6.0 1008.5 6.1-0.0
2015-Mar-30 07:00N 53°30' W 005°48'1312.5 1008.0 5.7 0.6
2015-Mar-30 06:00N 53°18' W 005°42'7 7.0 1007.8 5.8 1.0
2015-Mar-30 05:00N 53°24' W 005°36'7 7.2 1007.4 7.4 1.1
2015-Mar-30 04:00N 53°24' W 005°48'7 7.2 1006.6 5.9 1.1
2015-Mar-30 03:00N 53°24' W 006°00'6 6.0 1006.0 6.4 1.7
2015-Mar-30 02:00N 53°30' W 006°00'0 0.0 1004.5 5.1 1.7
2015-Mar-30 01:00N 53°30' W 006°00'6 6.0 1003.5 5.2 2.2
2015-Mar-30 00:00N 53°36' W 006°00'4 3.6 1002.3 5.4 1.5
2015-Mar-29 23:00N 53°36' W 005°54'6 6.0 1001.4 5.8 1.8
2015-Mar-29 22:00N 53°42' W 005°54'1312.5 1000.3 6.3 2.6
2015-Mar-29 21:00N 53°54' W 005°48'7 7.0 998.8 6.5 2.6
2015-Mar-29 20:00N 54°00' W 005°42'6 6.0 998.1 5.7 2.5
2015-Mar-29 19:00N 54°06' W 005°42'7 7.0 996.1 7.3 1.2
2015-Mar-29 18:00N 54°06' W 005°30'7 7.0 996.3 8.3 1.7
2015-Mar-29 17:00N 54°00' W 005°36'13 6.3 994.7 8.4 0.4
2015-Mar-29 15:00N 53°48' W 005°42'4 3.5 993.8 7.9 4.2
2015-Mar-29 14:00N 53°48' W 005°36'0 0.0 994.4 6.8 4.3
2015-Mar-29 13:00N 53°48' W 005°36'0 0.0 994.1 8.8 4.7
2015-Mar-29 12:00N 53°48' W 005°36'0 0.0 993.1 7.5 4.0
2015-Mar-29 11:00N 53°48' W 005°36'0 0.0 992.8 6.7 4.9
2015-Mar-29 10:00N 53°48' W 005°36'0 0.0 991.2 6.6 4.5
2015-Mar-29 09:00N 53°48' W 005°36'0 0.0 991.0 6.1 4.8
2015-Mar-29 08:00N 53°48' W 005°36'0 0.0 992.1 5.0 3.5
2015-Mar-29 07:00N 53°48' W 005°36'4 3.5 993.6 5.6 3.7
2015-Mar-29 06:00N 53°48' W 005°42'7 7.1 995.0 6.3 3.1
2015-Mar-29 05:00N 53°48' W 005°54'1110.6 996.4 8.6 3.8
2015-Mar-29 04:00N 53°48' W 006°12'0 0.0 997.3 8.3 3.2
2015-Mar-29 03:00N 53°48' W 006°12'7 7.0 997.3 8.0 3.0
2015-Mar-29 02:00N 53°54' W 006°06'0 0.0 997.9 8.1 3.2
2015-Mar-29 01:00N 53°54' W 006°06'4 1.8 998.8 8.1 3.0
2015-Mar-28 23:00N 53°54' W 006°12'7 7.1 998.1 8.4 2.7
2015-Mar-28 22:00N 53°54' W 006°00'7 7.0 997.2 9.0 3.8
2015-Mar-28 21:00N 54°00' W 006°06'1312.5 998.0 8.9 6.3
2015-Mar-28 20:00N 53°48' W 006°00'6 6.0 998.1 8.8 6.6
2015-Mar-28 19:00N 53°42' W 006°00'7 7.1 9.3 6.2
2015-Mar-28 18:00N 53°42' W 005°48'4 3.6 1000.7 9.0 5.8
2015-Mar-28 17:00N 53°42' W 005°42'7 7.0 1001.9 9.8 6.1
2015-Mar-28 16:00N 53°36' W 005°48'4 3.6 1001.6 11.6 5.6
2015-Mar-28 15:00N 53°36' W 005°54'7 7.1 1000.8 11.2 5.4
2015-Mar-28 14:00N 53°36' W 006°06'6 6.0 1001.4 11.2 5.9
2015-Mar-28 13:00N 53°42' W 006°06'6 6.0 1000.9 11.4 5.3
2015-Mar-28 12:00N 53°48' W 006°06'6 6.0 998.9 11.1 5.9
2015-Mar-28 11:00N 53°54' W 006°06'7 7.0 999.2 12.0 8.0
2015-Mar-28 10:00N 53°48' W 006°12'7 7.0 998.3 12.2 8.9
2015-Mar-28 09:00N 53°42' W 006°06'6 6.0 999.9 11.2 9.8
2015-Mar-28 08:00N 53°36' W 006°06'0 0.0 999.7 11.2 9.5
2015-Mar-28 07:00N 53°36' W 006°06'0 0.0 1001.2 11.9 9.1
2015-Mar-28 06:00N 53°36' W 006°06'0 0.0 1001.3 11.7 8.9
2015-Mar-28 05:00N 53°36' W 006°06'0 0.0 1002.1 11.3 9.1
2015-Mar-28 04:00N 53°36' W 006°06'0 0.0 1004.5 11.7 9.1
2015-Mar-28 03:00N 53°36' W 006°06'0 0.0 1006.2 8.2 7.8
2015-Mar-28 02:00N 53°36' W 006°06'6 6.0 1008.0 7.4 7.1
2015-Mar-28 01:00N 53°42' W 006°06'7 7.1 1009.8 7.3 7.0
2015-Mar-28 00:00N 53°42' W 005°54'9 9.3 1012.2 7.3 6.8
2015-Mar-27 23:00N 53°48' W 005°42'4 3.5 1013.8 7.3 6.6
2015-Mar-27 22:00N 53°48' W 005°36'9 9.3 1015.4 7.7 6.5
2015-Mar-27 21:00N 53°42' W 005°24'9 9.3 1016.5 7.5 6.1
2015-Mar-27 20:00N 53°36' W 005°12'1110.7 1017.0 7.6 6.2
2015-Mar-27 19:00N 53°36' W 004°54'1110.7 1017.6 7.5 6.1
2015-Mar-27 18:00N 53°36' W 004°36'1110.7 1017.5 7.3 4.7
2015-Mar-27 17:00N 53°36' W 004°18'1110.7 1017.7 7.7 4.3
2015-Mar-27 16:00N 53°36' W 004°00'1110.7 1018.2 7.6 3.4
2015-Mar-27 15:00N 53°36' W 003°42'7 7.1 1018.6 7.7 3.6
2015-Mar-27 14:00N 53°36' W 003°30'7 7.0 1018.9 7.4 2.3
2015-Mar-27 13:00N 53°30' W 003°24'0 0.0 1019.7 7.5 4.1
2015-Mar-27 12:00N 53°30' W 003°24'0 0.0 1019.8 6.8 3.4
2015-Mar-27 11:00N 53°30' W 003°24'0 0.0 1020.1 8.8 4.2
2015-Mar-27 10:00N 53°30' W 003°24'1212.3 1019.7 6.4 4.0
2015-Mar-27 09:00N 53°36' W 003°42'9 9.3 1019.0 6.5 4.4
2015-Mar-27 08:00N 53°42' W 003°54'9 9.3 1018.7 6.6 3.6
2015-Mar-27 07:00N 53°48' W 004°06'1212.2 1018.0 6.8 2.8
2015-Mar-27 06:00N 53°54' W 004°24'7 7.1 1017.8 6.5 2.5
2015-Mar-27 05:00N 53°54' W 004°36'1212.2 1017.6 6.5 2.6
2015-Mar-27 04:00N 54°00' W 004°54'1312.5 1017.3 6.3 2.6
2015-Mar-27 03:00N 54°12' W 005°00'1413.9 1016.8 5.6 2.2
2015-Mar-27 02:00N 54°24' W 005°12'7 6.9 1016.2 5.6 2.1
2015-Mar-27 01:00N 54°30' W 005°18'1413.9 1016.2 4.9 2.0
2015-Mar-27 00:00N 54°42' W 005°30'1010.4 1015.5 5.8 1.5
2015-Mar-26 23:00N 54°42' W 005°48'7 2.3 1015.5 5.4 0.8
2015-Mar-26 20:00N 54°36' W 005°54'0 0.0 1013.1 6.6-1.0
2015-Mar-26 16:00N 54°36' W 005°54'0 0.0 1008.1 9.3-1.2
2015-Mar-26 13:00N 54°36' W 005°54'0 0.0 1004.7 9.7-0.2
2015-Mar-26 05:00N 54°36' W 005°54'0 0.0 995.0 6.1 4.8
2015-Mar-26 04:00N 54°36' W 005°54'0 0.0 994.2 5.7 4.8
2015-Mar-26 02:00N 54°36' W 005°54'0 0.0 994.8 4.9 3.5
2015-Mar-25 19:00N 54°36' W 005°54'0 0.0 1004.9 6.2 1.8
2015-Mar-25 18:00N 54°36' W 005°54'0 0.0 1006.1 6.2 1.4
2015-Mar-25 17:00N 54°36' W 005°54'0 0.0 1006.8 6.6-0.0
2015-Mar-25 16:00N 54°36' W 005°54'0 0.0 1008.0 6.7-0.8
2015-Mar-25 14:00N 54°36' W 005°54'0 0.0 1009.5 9.3-0.2
2015-Mar-25 13:00N 54°36' W 005°54'0 0.0 1010.7 8.0-1.8
2015-Mar-25 12:00N 54°36' W 005°54'0 0.0 1012.0 7.6-0.4
2015-Mar-25 11:00N 54°36' W 005°54'0 0.0 1013.1 7.2 1.0
2015-Mar-25 10:00N 54°36' W 005°54'0 0.0 1013.5 6.6 2.0
2015-Mar-25 09:00N 54°36' W 005°54'0 0.0 1013.9 4.4 1.3
2015-Mar-25 06:00N 54°36' W 005°54'0 0.0 1014.0 2.1 0.2
2015-Mar-25 05:00N 54°36' W 005°54'0 0.0 1013.8 3.0 0.3
2015-Mar-25 04:00N 54°36' W 005°54'0 0.0 1013.9 3.6 0.4
2015-Mar-25 03:00N 54°36' W 005°54'0 0.0 1013.9 3.5 0.7
2015-Mar-25 00:00N 54°36' W 005°54'0 0.0 1014.1 4.1 0.2
2015-Mar-24 18:00N 54°36' W 005°54'0 0.0 1011.9 6.4 1.2
2015-Mar-24 14:00N 54°36' W 005°54'0 0.0 1011.0 5.9 1.2
2015-Mar-24 13:00N 54°36' W 005°54'0 0.0 1010.5 7.0 1.4
2015-Mar-24 11:00N 54°36' W 005°54'0 0.0 1010.8 6.9 2.4
2015-Mar-24 08:00N 54°36' W 005°54'0 0.0 1011.0 3.6 1.2
2015-Mar-24 03:00N 54°36' W 005°54'0 0.0 1011.6 3.0 0.8
2015-Mar-24 02:00N 54°36' W 005°54'0 0.0 1012.0 3.3 0.8
2015-Mar-24 00:00N 54°36' W 005°54'0 0.0 1012.9 3.4 0.8
2015-Mar-23 20:00N 54°36' W 005°54'0 0.0 1014.2 5.8 1.2
2015-Mar-23 18:00N 54°36' W 005°54'0 0.0 1014.2 7.9 0.2
2015-Mar-23 16:00N 54°36' W 005°54'0 0.0 1014.1 9.6-0.1
2015-Mar-23 15:00N 54°36' W 005°54'0 0.0 1014.3 9.5 0.3
2015-Mar-23 13:00N 54°36' W 005°54'0 0.0 1014.9 9.6 1.6
2015-Mar-23 11:00N 54°36' W 005°54'0 0.0 1015.3 9.2 1.5
2015-Mar-23 05:00N 54°36' W 005°54'0 0.0 1012.8 7.5 4.5
2015-Mar-23 04:00N 54°36' W 005°54'0 0.0 1012.8 8.0 4.4
2015-Mar-23 03:00N 54°36' W 005°54'0 0.0 1012.9 8.1 5.0
2015-Mar-23 02:00N 54°36' W 005°54'0 0.0 1013.1 8.2 4.7
2015-Mar-22 19:00N 54°36' W 005°54'12 3.0 1017.8 11.0 3.1
2015-Mar-22 15:00N 54°42' W 005°36'2412.0 1020.7 8.7 5.5
2015-Mar-22 13:00N 54°30' W 005°00'1010.5 1023.6 6.9 4.6
2015-Mar-22 12:00N 54°30' W 004°42'   1024.8 6.9 4.4

Dump ship's entire track history